Louisville, Kansas
Current Conditions -  °F | °C
As of 12:52 AM on Thursday 23 Oct 2014 (Local Time) from KMHK Reporting Station
Moderate Rain Moderate Rain  
Wind Chill: 62°   Ceiling: 7000
Heat Index: 62°   Visibility: 4mi
Dew Point: 61°   Wind: 6mph
Humidity: 96%   Direction: 30°NNE
Pressure: 30.08"   Gusts: NA
Location:  39.25°N, 96.32°W
Report Text: KMHK 230552Z AUTO 03005KT 4SM RA BR FEW050 BKN070 OVC085 17/16 A3008 RMK AO2 RAB15 SLP178 P0006 60008 T01670161 10228 20167 402670133 53003 TSNO
Loading
Personal Weather Stations






























Interactive Weather Map
Tropical Storm Tracking
New forecast layout! Learn more

10-Day Weather Forecast

Advertisements
Track Severe Weather on mobile